createdAt,value
2018-03-31T00:01:33.613Z,8.40
2018-03-31T00:04:00.868Z,8.40
2018-03-31T00:06:28.215Z,8.40
2018-03-31T00:08:55.576Z,8.30
2018-03-31T00:11:22.853Z,8.30
2018-03-31T00:13:51.002Z,8.40
2018-03-31T00:16:18.247Z,8.30
2018-03-31T00:18:45.605Z,8.40
2018-03-31T00:21:12.958Z,8.40
2018-03-31T00:23:40.317Z,8.50
2018-03-31T00:26:07.681Z,8.50
2018-03-31T00:28:35.026Z,8.50
2018-03-31T00:31:02.377Z,8.50
2018-03-31T00:33:29.732Z,8.50
2018-03-31T00:35:57.098Z,8.50
2018-03-31T00:38:24.440Z,8.50
2018-03-31T00:40:51.793Z,8.50
2018-03-31T00:43:19.154Z,8.40
2018-03-31T00:45:46.404Z,8.40
2018-03-31T00:48:13.765Z,8.30
2018-03-31T00:50:41.119Z,8.30
2018-03-31T00:53:08.473Z,8.30
2018-03-31T00:55:35.823Z,8.30
2018-03-31T00:58:03.178Z,8.30
2018-03-31T01:00:30.530Z,8.30
2018-03-31T01:02:57.888Z,8.30
2018-03-31T01:05:25.241Z,8.30
2018-03-31T01:07:52.601Z,8.30
2018-03-31T01:10:19.948Z,8.30
2018-03-31T01:12:47.311Z,8.30
2018-03-31T01:15:14.660Z,8.20
2018-03-31T01:17:42.011Z,8.10
2018-03-31T01:20:09.265Z,8.00
2018-03-31T01:22:36.626Z,8.00
2018-03-31T01:25:03.978Z,7.90
2018-03-31T01:27:31.291Z,7.90
2018-03-31T01:29:58.536Z,7.90
2018-03-31T01:32:25.835Z,7.90
2018-03-31T01:34:53.190Z,7.90
2018-03-31T01:37:20.545Z,7.90
2018-03-31T01:39:47.906Z,7.90
2018-03-31T01:42:15.257Z,7.90
2018-03-31T01:44:42.615Z,7.80
2018-03-31T01:47:09.990Z,7.80
2018-03-31T01:49:37.325Z,7.80
2018-03-31T01:52:04.681Z,7.80
2018-03-31T01:54:32.024Z,7.70
2018-03-31T01:56:59.382Z,7.70
2018-03-31T01:59:26.738Z,7.70
2018-03-31T02:01:53.990Z,7.70
2018-03-31T02:06:54.741Z,7.50
2018-03-31T02:09:22.098Z,7.50
2018-03-31T02:11:49.450Z,7.60
2018-03-31T02:14:16.704Z,7.50
2018-03-31T02:16:44.055Z,7.50
2018-03-31T02:19:11.304Z,7.40
2018-03-31T02:21:38.547Z,7.40
2018-03-31T02:24:05.922Z,7.40
2018-03-31T02:26:33.273Z,7.30
2018-03-31T02:29:00.635Z,7.20
2018-03-31T02:31:27.760Z,7.20
2018-03-31T02:33:54.884Z,7.20
2018-03-31T02:36:22.064Z,7.30
2018-03-31T02:38:49.167Z,7.30
2018-03-31T02:41:17.034Z,7.30
2018-03-31T02:43:44.938Z,7.30
2018-03-31T02:46:12.051Z,7.20
2018-03-31T02:48:39.926Z,7.30
2018-03-31T02:51:07.058Z,7.20
2018-03-31T02:53:34.920Z,7.30
2018-03-31T02:56:02.828Z,7.20
2018-03-31T02:58:29.921Z,7.20
2018-03-31T03:00:57.786Z,7.10
2018-03-31T03:03:24.915Z,7.10
2018-03-31T03:05:52.017Z,7.00
2018-03-31T03:08:19.916Z,7.00
2018-03-31T03:10:47.004Z,7.00
2018-03-31T03:13:14.094Z,7.10
2018-03-31T03:15:41.223Z,7.10
2018-03-31T03:18:09.090Z,7.20
2018-03-31T03:20:36.989Z,7.20
2018-03-31T03:23:04.096Z,7.20
2018-03-31T03:25:31.196Z,7.20
2018-03-31T03:27:58.321Z,7.20
2018-03-31T03:30:25.416Z,7.30
2018-03-31T03:32:52.553Z,7.30
2018-03-31T03:35:19.655Z,7.20
2018-03-31T03:37:47.512Z,7.10
2018-03-31T03:40:15.395Z,7.10
2018-03-31T03:42:43.257Z,7.10
2018-03-31T03:45:11.156Z,7.10
2018-03-31T03:47:38.256Z,7.00
2018-03-31T03:50:05.393Z,7.10
2018-03-31T03:52:33.252Z,7.10
2018-03-31T03:55:00.344Z,7.00
2018-03-31T03:57:27.468Z,7.10
2018-03-31T03:59:54.577Z,7.10
2018-03-31T04:02:21.716Z,7.20
2018-03-31T04:04:48.808Z,7.30
2018-03-31T04:07:17.412Z,7.30
2018-03-31T04:09:45.295Z,7.30
2018-03-31T04:12:12.395Z,7.30
2018-03-31T04:14:39.513Z,7.30
2018-03-31T04:17:06.613Z,7.30
2018-03-31T04:19:33.743Z,7.20
2018-03-31T04:22:00.838Z,7.10
2018-03-31T04:24:28.737Z,7.10
2018-03-31T04:26:55.842Z,7.00
2018-03-31T04:29:23.706Z,7.10
2018-03-31T04:31:51.597Z,7.10
2018-03-31T04:34:18.701Z,7.10
2018-03-31T04:36:47.340Z,7.20
2018-03-31T04:39:14.435Z,7.20
2018-03-31T04:41:41.531Z,7.30
2018-03-31T04:44:08.648Z,7.30
2018-03-31T04:46:35.740Z,7.40
2018-03-31T04:49:02.860Z,7.40
2018-03-31T04:51:30.717Z,7.40
2018-03-31T04:53:58.615Z,7.50
2018-03-31T04:56:25.724Z,7.40
2018-03-31T04:58:52.856Z,7.50
2018-03-31T05:01:19.948Z,7.50
2018-03-31T05:03:47.049Z,7.50
2018-03-31T05:06:14.180Z,7.50
2018-03-31T05:08:41.276Z,7.40
2018-03-31T05:11:09.164Z,7.40
2018-03-31T05:13:36.265Z,7.30
2018-03-31T05:16:03.398Z,7.20
2018-03-31T05:18:30.498Z,7.20
2018-03-31T05:20:58.367Z,7.10
2018-03-31T05:23:26.248Z,7.10
2018-03-31T05:25:53.353Z,7.10
2018-03-31T05:28:21.272Z,7.00
2018-03-31T05:30:48.375Z,7.00
2018-03-31T05:33:15.496Z,7.00
2018-03-31T05:35:42.608Z,7.00
2018-03-31T05:38:09.731Z,7.00
2018-03-31T05:40:36.829Z,7.10
2018-03-31T05:43:03.960Z,7.10
2018-03-31T05:45:31.056Z,7.10
2018-03-31T05:47:58.152Z,7.10
2018-03-31T05:50:25.277Z,7.00
2018-03-31T05:52:52.372Z,7.00
2018-03-31T05:55:19.500Z,7.00
2018-03-31T05:57:46.597Z,7.00
2018-03-31T06:00:13.720Z,7.10
2018-03-31T06:02:40.856Z,7.20
2018-03-31T06:05:07.948Z,7.20
2018-03-31T06:07:35.068Z,7.20
2018-03-31T06:10:02.180Z,7.20
2018-03-31T06:12:30.081Z,7.20
2018-03-31T06:14:57.171Z,7.20
2018-03-31T06:17:24.296Z,7.20
2018-03-31T06:19:51.384Z,7.20
2018-03-31T06:22:19.249Z,7.00
2018-03-31T06:24:47.195Z,7.00
2018-03-31T06:27:14.321Z,7.00
2018-03-31T06:29:41.443Z,7.00
2018-03-31T06:32:08.532Z,7.10
2018-03-31T06:34:35.656Z,7.10
2018-03-31T06:37:02.756Z,7.10
2018-03-31T06:39:29.884Z,7.10
2018-03-31T06:41:56.991Z,7.10
2018-03-31T06:44:24.136Z,7.10
2018-03-31T06:46:51.238Z,7.20
2018-03-31T06:49:18.336Z,7.10
2018-03-31T06:51:45.460Z,7.10
2018-03-31T06:54:12.556Z,7.20
2018-03-31T06:56:39.673Z,7.10
2018-03-31T06:59:07.540Z,7.10
2018-03-31T07:01:35.449Z,7.10
2018-03-31T07:04:02.542Z,7.10
2018-03-31T07:06:30.450Z,7.20
2018-03-31T07:08:57.829Z,7.20
2018-03-31T07:11:24.931Z,7.20
2018-03-31T07:13:52.838Z,7.20
2018-03-31T07:16:19.944Z,7.20
2018-03-31T07:18:47.842Z,7.30
2018-03-31T07:21:14.936Z,7.30
2018-03-31T07:23:42.046Z,7.40
2018-03-31T07:26:09.178Z,7.40
2018-03-31T07:28:36.283Z,7.40
2018-03-31T07:31:03.404Z,7.40
2018-03-31T07:33:30.505Z,7.40
2018-03-31T07:35:58.388Z,7.40
2018-03-31T07:38:25.484Z,7.40
2018-03-31T07:40:52.610Z,7.40
2018-03-31T07:43:19.716Z,7.50
2018-03-31T07:45:47.614Z,7.50
2018-03-31T07:48:14.719Z,7.50
2018-03-31T07:50:41.836Z,7.50
2018-03-31T07:53:08.938Z,7.50
2018-03-31T07:55:36.875Z,7.60
2018-03-31T07:58:03.976Z,7.50
2018-03-31T08:00:31.077Z,7.60
2018-03-31T08:02:58.200Z,7.60
2018-03-31T08:05:25.296Z,7.60
2018-03-31T08:07:53.196Z,7.60
2018-03-31T08:10:20.299Z,7.50
2018-03-31T08:12:48.159Z,7.60
2018-03-31T08:15:15.288Z,7.60
2018-03-31T08:17:42.389Z,7.60
2018-03-31T08:20:09.532Z,7.60
2018-03-31T08:22:37.400Z,7.40
2018-03-31T08:25:04.499Z,7.40
2018-03-31T08:27:31.633Z,7.30
2018-03-31T08:29:58.732Z,7.30
2018-03-31T08:32:26.629Z,7.30
2018-03-31T08:34:53.741Z,7.30
2018-03-31T08:37:20.850Z,7.30
2018-03-31T08:39:47.989Z,7.30
2018-03-31T08:42:15.085Z,7.30
2018-03-31T08:44:42.236Z,7.30
2018-03-31T08:47:09.394Z,7.30
2018-03-31T08:49:36.473Z,7.20
2018-03-31T08:52:03.602Z,7.10
2018-03-31T08:54:31.699Z,7.10
2018-03-31T08:56:58.835Z,7.00
2018-03-31T08:59:26.166Z,7.10
2018-03-31T09:01:54.402Z,7.10
2018-03-31T09:04:22.587Z,7.10
2018-03-31T09:06:49.846Z,7.10
2018-03-31T09:09:18.500Z,7.10
2018-03-31T09:11:45.624Z,7.10
2018-03-31T09:14:12.758Z,7.20
2018-03-31T09:16:40.651Z,7.10
2018-03-31T09:19:07.751Z,7.00
2018-03-31T09:21:34.888Z,7.10
2018-03-31T09:24:02.077Z,7.00
2018-03-31T09:26:29.979Z,6.90
2018-03-31T09:28:57.131Z,6.90
2018-03-31T09:31:24.311Z,6.80
2018-03-31T09:33:51.436Z,6.80
2018-03-31T09:36:18.540Z,6.90
2018-03-31T09:38:46.443Z,6.90
2018-03-31T09:41:13.541Z,6.80
2018-03-31T09:43:42.146Z,6.70
2018-03-31T09:46:10.041Z,6.70
2018-03-31T09:48:37.137Z,6.70
2018-03-31T09:51:04.268Z,6.60
2018-03-31T09:53:31.373Z,6.60
2018-03-31T09:55:58.460Z,6.60
2018-03-31T09:58:25.595Z,6.50
2018-03-31T10:00:58.353Z,6.50
2018-03-31T10:03:25.485Z,6.50
2018-03-31T10:05:53.352Z,6.30
2018-03-31T10:08:21.259Z,6.30
2018-03-31T10:10:48.410Z,6.30
2018-03-31T10:13:15.575Z,6.30
2018-03-31T10:15:42.819Z,6.40
2018-03-31T10:18:10.073Z,6.50
2018-03-31T10:20:37.358Z,6.60
2018-03-31T10:23:05.973Z,6.50
2018-03-31T10:25:35.950Z,6.50
2018-03-31T10:28:03.281Z,6.60
2018-03-31T10:30:30.381Z,6.60
2018-03-31T10:32:58.307Z,6.50
2018-03-31T10:38:03.262Z,6.60
2018-03-31T10:40:30.549Z,6.60
2018-03-31T10:42:58.570Z,6.60
2018-03-31T10:45:25.732Z,6.60
2018-03-31T10:47:52.996Z,6.50
2018-03-31T10:50:20.270Z,6.50
2018-03-31T10:52:48.397Z,6.50
2018-03-31T10:55:15.591Z,6.40
2018-03-31T10:57:45.469Z,6.50
2018-03-31T11:00:14.639Z,6.50
2018-03-31T11:02:43.722Z,6.60
2018-03-31T11:05:12.749Z,6.60
2018-03-31T11:07:40.769Z,6.60
2018-03-31T11:10:08.688Z,6.60
2018-03-31T11:12:35.985Z,6.50
2018-03-31T11:15:03.197Z,6.60
2018-03-31T11:17:30.444Z,6.60
2018-03-31T11:19:57.589Z,6.60
2018-03-31T11:22:24.790Z,6.60
2018-03-31T11:24:52.726Z,6.80
2018-03-31T11:27:19.994Z,6.80
2018-03-31T11:32:21.588Z,6.90
2018-03-31T11:34:49.504Z,7.00
2018-03-31T11:37:16.778Z,7.00
2018-03-31T11:39:44.044Z,7.00
2018-03-31T11:42:11.284Z,7.00
2018-03-31T11:44:38.531Z,7.00
2018-03-31T11:47:06.101Z,7.00
2018-03-31T11:49:34.164Z,7.00
2018-03-31T11:52:01.502Z,7.00
2018-03-31T11:54:28.761Z,7.00
2018-03-31T11:56:56.941Z,7.10
2018-03-31T11:59:24.197Z,7.00
2018-03-31T12:01:51.431Z,7.10
2018-03-31T12:04:18.825Z,7.10
2018-03-31T12:06:46.763Z,7.00
2018-03-31T12:09:14.010Z,7.00
2018-03-31T12:11:41.152Z,7.00
2018-03-31T12:14:08.431Z,7.00
2018-03-31T12:16:35.684Z,7.00
2018-03-31T12:19:02.914Z,7.00
2018-03-31T12:21:30.301Z,7.00
2018-03-31T12:23:57.545Z,7.00
2018-03-31T12:26:24.893Z,6.90
2018-03-31T12:28:52.244Z,6.90
2018-03-31T12:31:19.597Z,6.90
2018-03-31T12:33:46.965Z,6.90
2018-03-31T12:36:14.108Z,6.90
2018-03-31T12:38:41.345Z,6.90
2018-03-31T12:41:08.625Z,6.90
2018-03-31T12:43:35.865Z,6.90
2018-03-31T12:46:03.225Z,6.90
2018-03-31T12:48:30.488Z,6.90
2018-03-31T12:50:57.734Z,6.90
2018-03-31T12:53:24.880Z,6.90
2018-03-31T12:55:52.052Z,6.90
2018-03-31T12:58:20.117Z,6.80
2018-03-31T13:00:48.061Z,6.70
2018-03-31T13:03:15.320Z,6.70
2018-03-31T13:05:42.560Z,6.70
2018-03-31T13:08:09.746Z,6.70
2018-03-31T13:10:37.182Z,6.70
2018-03-31T13:13:04.535Z,6.60
2018-03-31T13:15:31.890Z,6.60
2018-03-31T13:17:59.246Z,6.60
2018-03-31T13:20:26.500Z,6.60
2018-03-31T13:22:53.607Z,6.60
2018-03-31T13:25:20.979Z,6.60
2018-03-31T13:27:48.165Z,6.50
2018-03-31T13:30:16.918Z,6.50
2018-03-31T13:32:44.093Z,6.50
2018-03-31T13:35:12.075Z,6.50
2018-03-31T13:37:39.304Z,6.40
2018-03-31T13:40:06.548Z,6.40
2018-03-31T13:42:33.724Z,6.40
2018-03-31T13:45:00.962Z,6.50
2018-03-31T13:47:28.209Z,6.50
2018-03-31T13:49:55.451Z,6.50
2018-03-31T13:52:22.748Z,6.50
2018-03-31T13:54:50.694Z,6.40
2018-03-31T13:57:17.937Z,6.40
2018-03-31T13:59:45.073Z,6.40
2018-03-31T14:02:12.446Z,6.40
2018-03-31T14:04:39.699Z,6.40
2018-03-31T14:07:06.857Z,6.40
2018-03-31T14:09:34.794Z,6.40
2018-03-31T14:12:02.050Z,6.30
2018-03-31T14:14:29.284Z,6.40
2018-03-31T14:16:56.458Z,6.30
2018-03-31T14:19:23.644Z,6.30
2018-03-31T14:21:50.973Z,6.30
2018-03-31T14:24:18.234Z,6.40
2018-03-31T14:26:45.423Z,6.40
2018-03-31T14:29:13.470Z,6.40
2018-03-31T14:31:40.670Z,6.30
2018-03-31T14:34:07.849Z,6.40
2018-03-31T14:36:34.960Z,6.40
2018-03-31T14:39:02.168Z,6.40
2018-03-31T14:41:29.288Z,6.40
2018-03-31T14:43:56.547Z,6.40
2018-03-31T14:46:23.911Z,6.40
2018-03-31T14:48:51.162Z,6.40
2018-03-31T14:51:18.497Z,6.30
2018-03-31T14:53:45.700Z,6.40
2018-03-31T14:56:13.746Z,6.40
2018-03-31T14:58:41.728Z,6.40
2018-03-31T15:01:09.060Z,6.40
2018-03-31T15:03:36.201Z,6.40
2018-03-31T15:06:03.396Z,6.30
2018-03-31T15:08:31.445Z,6.30
2018-03-31T15:10:58.684Z,6.30
2018-03-31T15:13:25.923Z,6.30
2018-03-31T15:15:53.092Z,6.30
2018-03-31T15:18:20.280Z,6.30
2018-03-31T15:20:48.179Z,6.20
2018-03-31T15:23:15.356Z,6.20
2018-03-31T15:25:42.592Z,6.20
2018-03-31T15:28:09.787Z,6.20
2018-03-31T15:30:37.913Z,6.20
2018-03-31T15:33:05.177Z,6.20
2018-03-31T15:35:32.295Z,6.20
2018-03-31T15:37:59.573Z,6.20
2018-03-31T15:40:26.729Z,6.20
2018-03-31T15:42:54.074Z,6.20
2018-03-31T15:45:21.265Z,6.20
2018-03-31T15:47:48.505Z,6.20
2018-03-31T15:50:17.189Z,6.20
2018-03-31T15:52:44.433Z,6.20
2018-03-31T15:55:11.768Z,6.30
2018-03-31T15:57:38.952Z,6.30
2018-03-31T16:00:06.290Z,6.30
2018-03-31T16:02:33.435Z,6.30
2018-03-31T16:05:00.675Z,6.30
2018-03-31T16:07:27.961Z,6.30
2018-03-31T16:09:55.190Z,6.40
2018-03-31T16:12:22.504Z,6.40
2018-03-31T16:14:49.684Z,6.40
2018-03-31T16:17:16.852Z,6.40
2018-03-31T16:19:43.984Z,6.40
2018-03-31T16:22:11.128Z,6.40
2018-03-31T16:24:38.319Z,6.50
2018-03-31T16:27:05.558Z,6.50
2018-03-31T16:29:32.909Z,6.50
2018-03-31T16:32:00.273Z,6.50
2018-03-31T16:34:27.625Z,6.60
2018-03-31T16:36:54.979Z,6.60
2018-03-31T16:39:24.546Z,6.60
2018-03-31T16:41:52.760Z,6.70
2018-03-31T16:44:20.109Z,6.60
2018-03-31T16:46:47.439Z,6.70
2018-03-31T16:49:14.827Z,6.70
2018-03-31T16:51:42.778Z,6.70
2018-03-31T16:54:10.060Z,6.60
2018-03-31T16:56:37.293Z,6.70
2018-03-31T16:59:04.646Z,6.70
2018-03-31T17:01:31.999Z,6.60
2018-03-31T17:03:59.597Z,6.60
2018-03-31T17:06:27.545Z,6.60
2018-03-31T17:08:54.879Z,6.50
2018-03-31T17:11:22.242Z,6.60
2018-03-31T17:13:49.478Z,6.50
2018-03-31T17:16:16.742Z,6.50
2018-03-31T17:18:44.102Z,6.50
2018-03-31T17:21:11.257Z,6.50
2018-03-31T17:23:40.032Z,6.40
2018-03-31T17:26:07.500Z,6.40
2018-03-31T17:28:34.851Z,6.40
2018-03-31T17:31:02.213Z,6.40
2018-03-31T17:33:31.007Z,6.40
2018-03-31T17:35:58.344Z,6.40
2018-03-31T17:38:25.703Z,6.40
2018-03-31T17:40:53.052Z,6.30
2018-03-31T17:43:20.413Z,6.30
2018-03-31T17:45:47.762Z,6.30
2018-03-31T17:48:15.122Z,6.30
2018-03-31T17:50:43.299Z,6.20
2018-03-31T17:53:10.649Z,6.20
2018-03-31T17:55:38.016Z,6.20
2018-03-31T17:58:05.360Z,6.20
2018-03-31T18:00:32.712Z,6.10
2018-03-31T18:03:00.073Z,6.10
2018-03-31T18:05:27.344Z,6.10
2018-03-31T18:07:54.635Z,6.10
2018-03-31T18:10:21.772Z,6.10
2018-03-31T18:12:48.903Z,6.10
2018-03-31T18:15:16.763Z,6.10
2018-03-31T18:17:44.664Z,6.10
2018-03-31T18:20:11.764Z,6.10
2018-03-31T18:22:38.861Z,6.10
2018-03-31T18:25:05.995Z,6.20
2018-03-31T18:27:33.864Z,6.20
2018-03-31T18:30:01.000Z,6.10
2018-03-31T18:32:29.163Z,6.20
2018-03-31T18:34:56.374Z,6.10
2018-03-31T18:37:23.762Z,6.20
2018-03-31T18:39:51.938Z,6.20
2018-03-31T18:42:19.984Z,6.10
2018-03-31T18:44:48.069Z,6.10
2018-03-31T18:47:15.424Z,6.10
2018-03-31T18:49:42.778Z,6.20
2018-03-31T18:52:10.079Z,6.10
2018-03-31T18:54:37.965Z,6.00
2018-03-31T18:57:05.085Z,6.00
2018-03-31T18:59:32.949Z,6.00
2018-03-31T19:02:01.038Z,6.00
2018-03-31T19:04:28.427Z,5.90
2018-03-31T19:06:57.387Z,6.00
2018-03-31T19:09:24.978Z,6.00
2018-03-31T19:11:52.333Z,6.00
2018-03-31T19:14:19.693Z,6.00
2018-03-31T19:16:52.674Z,6.00
2018-03-31T19:19:20.029Z,5.90
2018-03-31T19:21:47.487Z,5.90
2018-03-31T19:24:16.380Z,5.80
2018-03-31T19:26:43.731Z,5.80
2018-03-31T19:29:11.090Z,5.90
2018-03-31T19:31:39.395Z,5.90
2018-03-31T19:34:06.783Z,5.90
2018-03-31T19:36:34.175Z,5.90
2018-03-31T19:39:01.300Z,6.00
2018-03-31T19:41:28.428Z,6.00
2018-03-31T19:43:56.294Z,6.00
2018-03-31T19:46:24.152Z,6.00
2018-03-31T19:48:52.040Z,6.00
2018-03-31T19:51:19.942Z,5.90
2018-03-31T19:53:47.296Z,6.00
2018-03-31T19:56:14.371Z,6.00
2018-03-31T19:58:41.468Z,6.00
2018-03-31T20:01:08.589Z,6.00
2018-03-31T20:03:36.452Z,6.00
2018-03-31T20:06:04.348Z,6.00
2018-03-31T20:08:31.450Z,6.00
2018-03-31T20:10:58.545Z,6.00
2018-03-31T20:13:25.668Z,6.00
2018-03-31T20:15:53.529Z,6.10
2018-03-31T20:18:20.676Z,6.00
2018-03-31T20:20:47.785Z,6.10
2018-03-31T20:23:14.880Z,6.10
2018-03-31T20:25:42.000Z,6.10
2018-03-31T20:28:09.107Z,6.10
2018-03-31T20:30:36.245Z,6.00
2018-03-31T20:33:04.117Z,6.10
2018-03-31T20:35:31.984Z,6.10
2018-03-31T20:37:59.555Z,6.00
2018-03-31T20:40:26.847Z,6.10
2018-03-31T20:42:54.200Z,6.10
2018-03-31T20:45:21.560Z,6.10
2018-03-31T20:47:48.916Z,6.10
2018-03-31T20:50:16.265Z,6.10
2018-03-31T20:52:43.528Z,6.10
2018-03-31T20:55:10.830Z,6.10
2018-03-31T20:57:38.130Z,6.10
2018-03-31T21:00:05.386Z,6.00
2018-03-31T21:02:32.731Z,6.00
2018-03-31T21:04:59.838Z,5.90
2018-03-31T21:07:26.965Z,5.80
2018-03-31T21:09:54.897Z,5.80
2018-03-31T21:12:22.052Z,5.80
2018-03-31T21:14:49.149Z,5.80
2018-03-31T21:17:16.257Z,5.80
2018-03-31T21:19:44.893Z,5.90
2018-03-31T21:22:11.988Z,5.90
2018-03-31T21:24:39.121Z,5.90
2018-03-31T21:27:06.240Z,6.00
2018-03-31T21:29:33.470Z,6.00
2018-03-31T21:32:01.370Z,6.00
2018-03-31T21:34:28.470Z,5.90
2018-03-31T21:36:55.599Z,6.00
2018-03-31T21:39:22.703Z,6.00
2018-03-31T21:41:49.843Z,6.10
2018-03-31T21:44:17.850Z,6.00
2018-03-31T21:46:44.979Z,6.00
2018-03-31T21:49:12.114Z,6.00
2018-03-31T21:51:39.409Z,6.00
2018-03-31T21:54:06.551Z,6.00
2018-03-31T21:56:33.711Z,6.00
2018-03-31T21:59:00.805Z,5.90
2018-03-31T22:01:28.706Z,5.90
2018-03-31T22:03:55.869Z,5.80
2018-03-31T22:06:23.025Z,5.80
2018-03-31T22:08:50.128Z,5.80
2018-03-31T22:11:17.997Z,5.80
2018-03-31T22:16:51.054Z,5.80
2018-03-31T22:19:18.184Z,5.80
2018-03-31T22:21:46.438Z,5.90
2018-03-31T22:24:13.708Z,5.90
2018-03-31T22:26:40.807Z,6.00
2018-03-31T22:32:01.684Z,6.00
2018-03-31T22:34:29.564Z,6.00
2018-03-31T22:36:58.051Z,6.10
2018-03-31T22:39:26.191Z,6.10
2018-03-31T22:41:53.544Z,6.10
2018-03-31T22:44:20.646Z,6.10
2018-03-31T22:46:47.788Z,6.20
2018-03-31T22:49:14.908Z,6.20
2018-03-31T22:51:41.999Z,6.10
2018-03-31T22:54:09.120Z,6.10
2018-03-31T22:56:36.990Z,6.20
2018-03-31T22:59:04.884Z,6.20
2018-03-31T23:01:31.984Z,6.10
2018-03-31T23:03:59.083Z,6.20
2018-03-31T23:06:26.200Z,6.20
2018-03-31T23:08:54.069Z,6.20
2018-03-31T23:11:21.972Z,6.20
2018-03-31T23:13:49.064Z,6.20
2018-03-31T23:16:16.193Z,6.20
2018-03-31T23:18:43.370Z,6.20
2018-03-31T23:21:10.496Z,6.20
2018-03-31T23:23:37.625Z,6.20
2018-03-31T23:26:04.789Z,6.20
2018-03-31T23:28:31.927Z,6.30
2018-03-31T23:30:59.096Z,6.30
2018-03-31T23:33:26.188Z,6.30
2018-03-31T23:35:54.087Z,6.30
2018-03-31T23:38:21.188Z,6.30
2018-03-31T23:40:48.314Z,6.30
2018-03-31T23:43:15.413Z,6.40
2018-03-31T23:45:42.553Z,6.30
2018-03-31T23:48:10.420Z,6.30
2018-03-31T23:50:38.291Z,6.30
2018-03-31T23:53:06.181Z,6.30
2018-03-31T23:55:33.275Z,6.30
2018-03-31T23:58:00.405Z,6.30
